Lewisville's Hourly Summary for Monday, July 9, 2018
Hour Temp
(f)
RH
(%)
Solar Rad.
(MJ/m2)
Rainfall
(in)
Wind
(mph)
7/9/2018 12:00 AM 80 62 0 0 2.23
7/9/2018 1:00 AM 79 67 0 0 1.2
7/9/2018 2:00 AM 78 71 0 0 0.83
7/9/2018 3:00 AM 78 73 0 0 3.06
7/9/2018 4:00 AM 77 76 0 0 3.15
7/9/2018 5:00 AM 77 77 0 0 1.99
7/9/2018 6:00 AM 76 78 0.02 0 1.39
7/9/2018 7:00 AM 77 74 0.36 0 0.35
7/9/2018 8:00 AM 81 66 1.07 0 1.71
7/9/2018 9:00 AM 84 61 1.43 0 2.46
7/9/2018 10:00 AM 85 55 1.89 0 3.04
7/9/2018 11:00 AM 86 52 1.41 0 3.15
7/9/2018 12:00 PM 86 50 1.93 0 3.27
7/9/2018 1:00 PM 87 50 1.64 0 4.02
7/9/2018 2:00 PM 89 46 2.55 0 6.34
7/9/2018 3:00 PM 84 53 1.41 0 7.29
7/9/2018 4:00 PM 87 54 2.25 0 5.9
7/9/2018 5:00 PM 87 50 1.4 0 5.63
7/9/2018 6:00 PM 87 51 0.6 0 4.72
7/9/2018 7:00 PM 84 60 0.2 0 6.22
7/9/2018 8:00 PM 82 64 0.06 0 5.76
7/9/2018 9:00 PM 81 71 0 0 3.42
7/9/2018 10:00 PM 80 73 0 0 0.95
7/9/2018 11:00 PM 79 76 0 0 1.16
Data Summary 82 62 18.22 0.00 3.30